createdAt,value
2022-11-30T00:00:41.689Z,98695.84
2022-11-30T00:01:43.131Z,98699.53
2022-11-30T00:02:44.810Z,98701.56
2022-11-30T00:03:47.164Z,98697.59
2022-11-30T00:04:49.143Z,98688.06
2022-11-30T00:05:51.114Z,98694.88
2022-11-30T00:06:57.153Z,98687.16
2022-11-30T00:08:01.108Z,98691.00
2022-11-30T00:09:02.671Z,98694.41
2022-11-30T00:10:05.901Z,98689.59
2022-11-30T00:11:15.547Z,98692.22
2022-11-30T00:12:16.992Z,98696.06
2022-11-30T00:13:18.430Z,98697.28
2022-11-30T00:14:19.870Z,98692.50
2022-11-30T00:15:21.322Z,98691.75
2022-11-30T00:16:23.081Z,98687.25
2022-11-30T00:17:24.585Z,98690.31
2022-11-30T00:18:26.023Z,98684.31
2022-11-30T00:19:27.469Z,98686.31
2022-11-30T00:20:30.090Z,98690.66
2022-11-30T00:21:31.797Z,98684.50
2022-11-30T00:22:33.618Z,98684.50
2022-11-30T00:23:39.720Z,98685.41
2022-11-30T00:24:41.149Z,98680.16
2022-11-30T00:25:42.553Z,98682.78
2022-11-30T00:26:44.170Z,98689.88
2022-11-30T00:27:45.588Z,98682.66
2022-11-30T00:28:48.003Z,98688.03
2022-11-30T00:29:49.478Z,98690.31
2022-11-30T00:31:00.560Z,98695.25
2022-11-30T00:32:02.049Z,98685.09
2022-11-30T00:33:03.528Z,98684.31
2022-11-30T00:34:05.497Z,98692.94
2022-11-30T00:35:07.238Z,98687.69
2022-11-30T00:36:13.530Z,98688.03
2022-11-30T00:37:15.117Z,98683.56
2022-11-30T00:38:16.556Z,98687.25
2022-11-30T00:39:18.001Z,98690.66
2022-11-30T00:40:19.452Z,98691.75
2022-11-30T00:41:21.393Z,98686.50
2022-11-30T00:42:22.814Z,98689.88
2022-11-30T00:43:24.317Z,98691.75
2022-11-30T00:44:25.861Z,98692.19
2022-11-30T00:45:27.327Z,98696.84
2022-11-30T00:46:28.841Z,98699.47
2022-11-30T00:47:30.478Z,98694.50
2022-11-30T00:48:32.319Z,98704.22
2022-11-30T00:49:37.038Z,98700.59
2022-11-30T00:50:38.486Z,98698.72
2022-11-30T00:51:39.965Z,98698.09
2022-11-30T00:52:41.368Z,98701.94
2022-11-30T00:53:42.878Z,98701.50
2022-11-30T00:54:44.859Z,98697.31
2022-11-30T00:55:47.273Z,98702.25
2022-11-30T00:56:48.734Z,98702.25
2022-11-30T00:57:50.201Z,98697.31
2022-11-30T00:58:51.981Z,98700.41
2022-11-30T00:59:53.440Z,98704.88
2022-11-30T01:00:54.951Z,98701.16
2022-11-30T01:01:56.500Z,98696.09
2022-11-30T01:02:59.380Z,98701.34
2022-11-30T01:04:01.143Z,98701.06
2022-11-30T01:05:02.590Z,98705.69
2022-11-30T01:06:06.115Z,98698.25
2022-11-30T01:07:07.576Z,98710.28
2022-11-30T01:08:11.148Z,98694.88
2022-11-30T01:09:12.915Z,98703.81
2022-11-30T01:10:14.451Z,98711.34
2022-11-30T01:11:20.656Z,98710.28
2022-11-30T01:12:22.215Z,98708.44
2022-11-30T01:13:24.461Z,98710.41
2022-11-30T01:14:26.858Z,98706.25
2022-11-30T01:15:28.636Z,98702.09
2022-11-30T01:16:32.122Z,98710.88
2022-11-30T01:17:34.520Z,98711.81
2022-11-30T01:18:38.241Z,98708.44
2022-11-30T01:19:39.657Z,98717.84
2022-11-30T01:20:42.709Z,98720.44
2022-11-30T01:21:44.040Z,98722.31
2022-11-30T01:22:45.577Z,98719.69
2022-11-30T01:23:48.349Z,98720.00
2022-11-30T01:24:49.961Z,98719.69
2022-11-30T01:25:55.498Z,98714.78
2022-11-30T01:26:56.996Z,98720.78
2022-11-30T01:27:58.432Z,98720.44
2022-11-30T01:29:00.150Z,98721.69
2022-11-30T01:30:01.979Z,98727.06
2022-11-30T01:31:09.495Z,98725.06
2022-11-30T01:32:10.993Z,98727.22
2022-11-30T01:33:12.478Z,98731.69
2022-11-30T01:34:13.914Z,98725.38
2022-11-30T01:35:15.598Z,98727.53
2022-11-30T01:36:20.111Z,98722.63
2022-11-30T01:37:21.528Z,98726.31
2022-11-30T01:38:22.966Z,98714.28
2022-11-30T01:39:24.657Z,98728.94
2022-11-30T01:40:26.097Z,98719.88
2022-11-30T01:41:30.850Z,98728.81
2022-11-30T01:42:33.248Z,98719.88
2022-11-30T01:43:39.211Z,98728.00
2022-11-30T01:44:51.365Z,98716.00
2022-11-30T01:45:52.858Z,98721.56
2022-11-30T01:47:09.988Z,98720.97
2022-11-30T01:48:11.414Z,98721.59
2022-11-30T01:49:15.306Z,98722.81
2022-11-30T01:50:25.761Z,98719.13
2022-11-30T01:51:31.182Z,98721.75
2022-11-30T01:52:37.344Z,98722.81
2022-11-30T01:53:38.850Z,98723.44
2022-11-30T01:54:56.294Z,98717.88
2022-11-30T01:55:57.773Z,98718.66
2022-11-30T01:57:06.664Z,98723.88
2022-11-30T01:58:12.212Z,98720.06
2022-11-30T01:59:14.484Z,98717.94
2022-11-30T02:00:17.231Z,98718.06
2022-11-30T02:01:18.796Z,98720.06
2022-11-30T02:02:27.092Z,98719.44
2022-11-30T02:03:49.248Z,98722.06
2022-11-30T02:04:51.155Z,98721.28
2022-11-30T02:05:53.091Z,98712.66
2022-11-30T02:06:56.534Z,98724.03
2022-11-30T02:07:58.153Z,98719.56
2022-11-30T02:09:00.091Z,98725.56
2022-11-30T02:10:01.873Z,98722.66
2022-11-30T02:11:06.129Z,98715.56
2022-11-30T02:12:14.397Z,98721.13
2022-11-30T02:13:45.032Z,98720.31
2022-11-30T02:14:51.430Z,98714.03
2022-11-30T02:16:17.787Z,98716.34
2022-11-30T02:17:32.963Z,98727.91
2022-11-30T02:18:49.263Z,98716.19
2022-11-30T02:20:18.606Z,98725.91
2022-11-30T02:21:32.540Z,98725.13
2022-11-30T02:22:45.849Z,98728.06
2022-11-30T02:24:00.810Z,98727.75
2022-11-30T02:25:11.453Z,98722.19
2022-11-30T02:26:58.404Z,98725.44
2022-11-30T02:28:49.214Z,98724.69
2022-11-30T02:30:03.406Z,98728.38
2022-11-30T02:31:08.554Z,98717.28
2022-11-30T02:32:17.233Z,98726.66
2022-11-30T02:33:23.893Z,98720.66
2022-11-30T02:34:29.581Z,98719.56
2022-11-30T02:35:35.430Z,98722.66
2022-11-30T02:36:37.341Z,98715.88
2022-11-30T02:37:39.944Z,98721.88
2022-11-30T02:38:42.034Z,98727.91
2022-11-30T02:39:44.405Z,98729.75
2022-11-30T02:40:46.176Z,98725.56
2022-11-30T02:41:47.727Z,98727.91
2022-11-30T02:42:52.063Z,98727.56
2022-11-30T02:43:53.701Z,98728.34
2022-11-30T02:44:55.609Z,98726.66
2022-11-30T02:46:23.328Z,98730.81
2022-11-30T02:47:34.927Z,98727.75
2022-11-30T02:48:47.198Z,98731.44
2022-11-30T02:50:01.792Z,98731.44
2022-11-30T02:51:06.695Z,98733.59
2022-11-30T02:52:10.701Z,98728.25
2022-11-30T02:53:13.264Z,98730.84
2022-11-30T02:54:14.723Z,98731.63
2022-11-30T02:55:19.122Z,98728.84
2022-11-30T02:56:22.117Z,98732.25
2022-11-30T02:57:23.492Z,98735.19
2022-11-30T02:58:25.042Z,98740.41
2022-11-30T02:59:26.806Z,98735.47
2022-11-30T03:00:28.645Z,98741.81
2022-11-30T03:01:30.194Z,98732.09
2022-11-30T03:02:31.756Z,98741.50
2022-11-30T03:03:33.262Z,98733.31
2022-11-30T03:04:34.782Z,98743.03
2022-11-30T03:05:36.582Z,98743.31
2022-11-30T03:06:38.093Z,98734.25
2022-11-30T03:07:39.576Z,98743.22
2022-11-30T03:08:41.036Z,98743.97
2022-11-30T03:09:42.825Z,98736.13
2022-11-30T03:10:44.219Z,98735.16
2022-11-30T03:11:45.706Z,98739.34
2022-11-30T03:12:47.207Z,98736.25
2022-11-30T03:13:48.926Z,98740.88
2022-11-30T03:14:50.771Z,98739.81
2022-11-30T03:15:52.436Z,98742.88
2022-11-30T03:16:53.988Z,98739.66
2022-11-30T03:17:55.474Z,98742.28
2022-11-30T03:19:00.036Z,98738.41
2022-11-30T03:20:02.001Z,98737.66
2022-11-30T03:21:11.786Z,98738.75
2022-11-30T03:22:13.272Z,98743.66
2022-11-30T03:23:14.810Z,98743.97
2022-11-30T03:24:16.436Z,98738.75
2022-11-30T03:25:18.250Z,98745.50
2022-11-30T03:26:19.752Z,98748.88
2022-11-30T03:27:21.439Z,98736.56
2022-11-30T03:28:22.876Z,98748.13
2022-11-30T03:29:24.422Z,98744.75
2022-11-30T03:30:25.913Z,98747.81
2022-11-30T03:31:27.456Z,98748.88
2022-11-30T03:32:30.992Z,98743.22
2022-11-30T03:33:32.854Z,98756.75
2022-11-30T03:34:34.286Z,98747.03
2022-11-30T03:35:36.138Z,98750.13
2022-11-30T03:36:37.637Z,98751.19
2022-11-30T03:37:39.207Z,98750.41
2022-11-30T03:38:40.782Z,98751.97
2022-11-30T03:39:42.246Z,98754.91
2022-11-30T03:40:43.863Z,98753.81
2022-11-30T03:41:45.295Z,98749.66
2022-11-30T03:42:46.770Z,98750.13
2022-11-30T03:43:48.484Z,98750.91
2022-11-30T03:44:50.303Z,98749.81
2022-11-30T03:45:51.776Z,98753.97
2022-11-30T03:46:53.302Z,98753.63
2022-11-30T03:47:54.865Z,98755.19
2022-11-30T03:48:56.406Z,98749.47
2022-11-30T03:49:58.175Z,98751.81
2022-11-30T03:50:59.623Z,98752.56
2022-11-30T03:52:01.091Z,98745.00
2022-11-30T03:53:02.508Z,98753.63
2022-11-30T03:54:03.993Z,98752.56
2022-11-30T03:55:05.964Z,98749.19
2022-11-30T03:56:09.548Z,98754.56
2022-11-30T03:57:10.957Z,98749.31
2022-11-30T03:58:12.748Z,98749.97
2022-11-30T03:59:14.150Z,98750.72
2022-11-30T04:00:16.378Z,98747.63
2022-11-30T04:01:23.706Z,98750.72
2022-11-30T04:02:25.464Z,98749.47
2022-11-30T04:03:29.386Z,98751.34
2022-11-30T04:04:30.807Z,98749.81
2022-11-30T04:05:32.729Z,98749.97
2022-11-30T04:06:34.466Z,98754.44
2022-11-30T04:07:35.908Z,98745.16
2022-11-30T04:08:38.167Z,98749.03
2022-11-30T04:09:39.768Z,98745.16
2022-11-30T04:10:41.612Z,98746.56
2022-11-30T04:11:43.184Z,98747.34
2022-11-30T04:12:44.682Z,98741.00
2022-11-30T04:13:46.232Z,98741.34
2022-11-30T04:14:48.250Z,98741.00
2022-11-30T04:15:51.679Z,98750.72
2022-11-30T04:16:53.237Z,98749.47
2022-11-30T04:17:54.758Z,98753.19
2022-11-30T04:18:56.268Z,98748.41
2022-11-30T04:19:58.106Z,98752.56
2022-11-30T04:21:02.951Z,98756.72
2022-11-30T04:22:04.403Z,98748.88
2022-11-30T04:23:05.958Z,98755.97
2022-11-30T04:24:08.213Z,98754.44
2022-11-30T04:25:10.498Z,98744.72
2022-11-30T04:26:15.081Z,98749.63
2022-11-30T04:27:16.672Z,98749.97
2022-11-30T04:28:19.466Z,98745.00
2022-11-30T04:29:20.903Z,98754.09
2022-11-30T04:30:22.938Z,98751.16
2022-11-30T04:31:24.564Z,98756.41
2022-11-30T04:32:26.487Z,98749.63
2022-11-30T04:33:28.556Z,98755.19
2022-11-30T04:34:31.541Z,98756.72
2022-11-30T04:35:33.953Z,98749.63
2022-11-30T04:36:35.392Z,98758.09
2022-11-30T04:37:37.071Z,98755.03
2022-11-30T04:38:38.614Z,98757.97
2022-11-30T04:39:40.067Z,98760.13
2022-11-30T04:40:43.218Z,98759.50
2022-11-30T04:41:44.905Z,98760.91
2022-11-30T04:42:46.452Z,98759.03
2022-11-30T04:43:47.942Z,98755.97
2022-11-30T04:44:49.565Z,98755.53
2022-11-30T04:45:51.968Z,98757.84
2022-11-30T04:46:53.432Z,98762.31
2022-11-30T04:47:54.898Z,98758.59
2022-11-30T04:48:56.445Z,98759.03
2022-11-30T04:49:57.866Z,98756.44
2022-11-30T04:51:04.453Z,98762.47
2022-11-30T04:52:05.877Z,98761.22
2022-11-30T04:53:07.606Z,98759.69
2022-11-30T04:54:09.122Z,98759.69
2022-11-30T04:55:10.548Z,98766.78
2022-11-30T04:56:13.265Z,98759.69
2022-11-30T04:57:14.774Z,98765.69
2022-11-30T04:58:16.202Z,98761.97
2022-11-30T04:59:17.660Z,98762.47
2022-11-30T05:00:19.733Z,98761.22
2022-11-30T05:01:21.293Z,98764.28
2022-11-30T05:02:22.802Z,98759.50
2022-11-30T05:03:24.361Z,98757.50
2022-11-30T05:04:25.956Z,98764.00
2022-11-30T05:05:27.794Z,98761.03
2022-11-30T05:06:29.559Z,98758.59
2022-11-30T05:07:31.064Z,98764.91
2022-11-30T05:08:32.593Z,98756.75
2022-11-30T05:09:34.110Z,98756.75
2022-11-30T05:10:35.609Z,98755.97
2022-11-30T05:11:37.430Z,98761.84
2022-11-30T05:12:38.875Z,98759.50
2022-11-30T05:13:40.300Z,98761.06
2022-11-30T05:14:41.701Z,98774.16
2022-11-30T05:15:43.118Z,98771.53
2022-11-30T05:16:48.110Z,98778.31
2022-11-30T05:17:49.522Z,98775.41
2022-11-30T05:18:53.897Z,98781.41
2022-11-30T05:19:55.330Z,98781.72
2022-11-30T05:20:56.733Z,98777.25
2022-11-30T05:22:01.291Z,98782.50
2022-11-30T05:23:02.742Z,98782.78
2022-11-30T05:24:04.367Z,98776.78
2022-11-30T05:25:06.389Z,98783.06
2022-11-30T05:26:07.821Z,98777.69
2022-11-30T05:27:14.364Z,98787.53
2022-11-30T05:28:18.390Z,98785.25
2022-11-30T05:29:19.869Z,98779.25
2022-11-30T05:30:21.480Z,98787.09
2022-11-30T05:31:23.010Z,98784.78
2022-11-30T05:32:24.546Z,98782.16
2022-11-30T05:33:25.982Z,98774.00
2022-11-30T05:34:27.852Z,98781.38
2022-11-30T05:35:29.309Z,98782.16
2022-11-30T05:36:30.759Z,98776.16
2022-11-30T05:37:32.591Z,98780.63
2022-11-30T05:38:34.072Z,98781.56
2022-11-30T05:39:35.663Z,98772.50
2022-11-30T05:40:37.222Z,98776.16
2022-11-30T05:41:38.672Z,98780.03
2022-11-30T05:42:40.488Z,98780.34
2022-11-30T05:43:47.766Z,98774.31
2022-11-30T05:44:49.559Z,98775.88
2022-11-30T05:45:51.255Z,98780.47
2022-11-30T05:46:52.743Z,98778.63
2022-11-30T05:47:54.596Z,98781.56
2022-11-30T05:48:56.050Z,98778.16
2022-11-30T05:49:57.708Z,98780.63
2022-11-30T05:51:10.845Z,98783.56
2022-11-30T05:52:12.388Z,98779.41
2022-11-30T05:53:14.161Z,98784.16
2022-11-30T05:54:15.655Z,98784.50
2022-11-30T05:55:17.223Z,98782.97
2022-11-30T05:56:20.814Z,98779.41
2022-11-30T05:57:22.314Z,98780.94
2022-11-30T05:58:23.861Z,98778.34
2022-11-30T05:59:25.291Z,98781.44
2022-11-30T06:00:26.913Z,98778.34
2022-11-30T06:01:29.549Z,98779.41
2022-11-30T06:02:31.148Z,98780.19
2022-11-30T06:03:35.102Z,98780.19
2022-11-30T06:04:36.562Z,98780.78
2022-11-30T06:05:37.965Z,98782.19
2022-11-30T06:06:39.381Z,98780.66
2022-11-30T06:07:41.368Z,98777.72
2022-11-30T06:08:43.683Z,98783.28
2022-11-30T06:09:45.126Z,98781.09
2022-11-30T06:10:47.267Z,98787.75
2022-11-30T06:11:48.803Z,98780.94
2022-11-30T06:12:50.253Z,98782.03
2022-11-30T06:13:52.161Z,98780.94
2022-11-30T06:14:53.605Z,98783.28
2022-11-30T06:15:58.277Z,98783.72
2022-11-30T06:17:01.097Z,98783.28
2022-11-30T06:18:02.704Z,98786.81
2022-11-30T06:19:04.576Z,98784.50
2022-11-30T06:20:07.007Z,98787.56
2022-11-30T06:21:10.386Z,98787.75
2022-11-30T06:22:11.829Z,98790.81
2022-11-30T06:23:13.277Z,98790.03
2022-11-30T06:24:14.899Z,98787.09
2022-11-30T06:25:16.354Z,98785.41
2022-11-30T06:26:17.836Z,98792.50
2022-11-30T06:27:25.203Z,98786.81
2022-11-30T06:28:26.613Z,98790.47
2022-11-30T06:29:28.371Z,98792.66
2022-11-30T06:30:29.810Z,98791.13
2022-11-30T06:31:32.082Z,98789.88
2022-11-30T06:32:33.536Z,98797.28
2022-11-30T06:33:35.411Z,98796.50
2022-11-30T06:34:36.853Z,98801.75
2022-11-30T06:35:45.057Z,98797.88
2022-11-30T06:36:46.567Z,98797.44
2022-11-30T06:37:48.029Z,98791.09
2022-11-30T06:38:50.117Z,98793.72
2022-11-30T06:40:05.984Z,98793.72
2022-11-30T06:41:10.337Z,98796.34
2022-11-30T06:42:11.842Z,98797.09
2022-11-30T06:43:14.003Z,98794.81
2022-11-30T06:44:15.766Z,98804.19
2022-11-30T06:45:17.288Z,98805.72
2022-11-30T06:46:19.066Z,98802.81
2022-11-30T06:47:20.554Z,98799.88
2022-11-30T06:48:23.399Z,98796.78
2022-11-30T06:49:24.831Z,98803.88
2022-11-30T06:50:26.361Z,98797.44
2022-11-30T06:51:27.844Z,98794.81
2022-11-30T06:52:31.309Z,98798.66
2022-11-30T06:53:33.220Z,98799.28
2022-11-30T06:54:34.665Z,98795.56
2022-11-30T06:55:37.339Z,98792.19
2022-11-30T06:56:38.808Z,98799.41
2022-11-30T06:57:40.250Z,98797.09
2022-11-30T06:58:41.974Z,98800.50
2022-11-30T06:59:43.812Z,98793.88
2022-11-30T07:00:45.467Z,98802.19
2022-11-30T07:01:46.912Z,98804.03
2022-11-30T07:02:48.430Z,98805.13
2022-11-30T07:03:50.397Z,98805.56
2022-11-30T07:04:51.924Z,98814.66
2022-11-30T07:05:54.178Z,98804.19
2022-11-30T07:06:56.538Z,98809.44
2022-11-30T07:07:58.124Z,98811.72
2022-11-30T07:08:59.963Z,98805.13
2022-11-30T07:10:01.904Z,98800.19
2022-11-30T07:11:04.104Z,98811.13
2022-11-30T07:12:06.153Z,98815.13
2022-11-30T07:13:14.312Z,98809.59
2022-11-30T07:14:15.842Z,98817.91
2022-11-30T07:15:17.645Z,98815.72
2022-11-30T07:16:19.155Z,98814.34
2022-11-30T07:17:20.768Z,98818.50
2022-11-30T07:18:24.756Z,98823.75
2022-11-30T07:19:31.130Z,98823.28
2022-11-30T07:20:33.084Z,98815.44
2022-11-30T07:21:34.525Z,98823.75
2022-11-30T07:22:35.921Z,98816.22
2022-11-30T07:23:57.206Z,98818.06
2022-11-30T07:25:17.263Z,98819.91
2022-11-30T07:26:18.766Z,98816.97
2022-11-30T07:27:20.095Z,98820.69
2022-11-30T07:28:21.900Z,98814.69
2022-11-30T07:29:23.352Z,98821.28
2022-11-30T07:30:24.751Z,98824.97
2022-11-30T07:31:31.544Z,98826.50
2022-11-30T07:32:33.098Z,98824.50
2022-11-30T07:33:34.870Z,98826.66
2022-11-30T07:34:36.329Z,98819.59
2022-11-30T07:35:37.756Z,98826.66
2022-11-30T07:36:39.164Z,98821.44
2022-11-30T07:37:40.566Z,98815.88
2022-11-30T07:38:42.401Z,98823.44
2022-11-30T07:39:43.844Z,98825.59
2022-11-30T07:40:45.290Z,98824.50
2022-11-30T07:41:46.728Z,98828.38
2022-11-30T07:42:48.146Z,98819.28
2022-11-30T07:43:50.788Z,98824.50
2022-11-30T07:44:57.034Z,98825.75
2022-11-30T07:46:01.536Z,98828.69
2022-11-30T07:47:03.056Z,98829.13
2022-11-30T07:48:04.515Z,98833.28
2022-11-30T07:49:07.926Z,98830.38
2022-11-30T07:50:09.832Z,98835.28
2022-11-30T07:51:14.517Z,98822.22
2022-11-30T07:52:16.014Z,98824.06
2022-11-30T07:53:17.943Z,98828.97
2022-11-30T07:54:19.444Z,98822.38
2022-11-30T07:55:23.536Z,98825.75
2022-11-30T07:56:25.913Z,98822.06
2022-11-30T07:57:27.730Z,98818.06
2022-11-30T07:58:31.126Z,98822.97
2022-11-30T07:59:32.570Z,98824.84
2022-11-30T08:00:34.007Z,98825.44
2022-11-30T08:01:36.048Z,98824.66
2022-11-30T08:02:37.547Z,98830.06
2022-11-30T08:03:39.604Z,98832.38
2022-11-30T08:04:41.124Z,98832.84
2022-11-30T08:05:42.662Z,98822.38
2022-11-30T08:06:44.385Z,98828.06
2022-11-30T08:07:50.236Z,98822.06
2022-11-30T08:08:53.795Z,98827.28
2022-11-30T08:09:55.163Z,98823.44
2022-11-30T08:10:57.390Z,98829.75
2022-11-30T08:11:58.781Z,98832.06
2022-11-30T08:13:00.151Z,98833.44
2022-11-30T08:14:03.279Z,98837.59
2022-11-30T08:15:19.986Z,98839.28
2022-11-30T08:16:24.498Z,98842.97
2022-11-30T08:17:25.979Z,98836.50
2022-11-30T08:18:27.536Z,98838.53
2022-11-30T08:19:29.007Z,98836.38
2022-11-30T08:20:30.535Z,98829.47
2022-11-30T08:21:32.417Z,98832.06
2022-11-30T08:22:34.468Z,98827.91
2022-11-30T08:23:38.980Z,98830.50
2022-11-30T08:24:40.421Z,98826.03
2022-11-30T08:25:41.914Z,98827.59
2022-11-30T08:26:43.430Z,98825.91
2022-11-30T08:27:45.079Z,98825.00
2022-11-30T08:28:48.603Z,98833.31
2022-11-30T08:29:50.068Z,98834.84
2022-11-30T08:30:51.614Z,98835.31
2022-11-30T08:31:53.080Z,98844.06
2022-11-30T08:32:54.497Z,98847.00
2022-11-30T08:33:57.615Z,98848.09
2022-11-30T08:34:59.080Z,98848.09
2022-11-30T08:36:15.291Z,98849.16
2022-11-30T08:37:16.762Z,98857.31
2022-11-30T08:38:18.339Z,98854.69
2022-11-30T08:39:19.955Z,98856.84
2022-11-30T08:40:21.398Z,98857.47
2022-11-30T08:41:23.472Z,98857.75
2022-11-30T08:42:24.889Z,98858.69
2022-11-30T08:43:27.285Z,98856.25
2022-11-30T08:44:29.590Z,98857.00
2022-11-30T08:45:31.009Z,98853.94
2022-11-30T08:46:53.032Z,98855.31
2022-11-30T08:47:54.927Z,98865.63
2022-11-30T08:49:13.007Z,98864.69
2022-11-30T08:50:17.697Z,98869.47
2022-11-30T08:51:20.555Z,98873.16
2022-11-30T08:52:21.969Z,98872.56
2022-11-30T08:53:23.456Z,98866.53
2022-11-30T08:54:26.297Z,98874.53
2022-11-30T08:55:27.745Z,98874.22
2022-11-30T08:56:29.186Z,98873.75
2022-11-30T08:57:31.345Z,98870.69
2022-11-30T08:58:36.530Z,98878.53
2022-11-30T08:59:37.982Z,98871.47
2022-11-30T09:00:39.458Z,98871.75
2022-11-30T09:01:42.641Z,98878.22
2022-11-30T09:02:44.575Z,98880.53
2022-11-30T09:03:47.512Z,98879.13
2022-11-30T09:04:51.022Z,98879.28
2022-11-30T09:05:52.485Z,98881.13
2022-11-30T09:06:58.743Z,98883.28
2022-11-30T09:08:00.383Z,98882.69
2022-11-30T09:09:02.276Z,98886.38
2022-11-30T09:10:04.050Z,98893.59
2022-11-30T09:11:09.686Z,98883.63
2022-11-30T09:12:11.258Z,98886.41
2022-11-30T09:13:13.073Z,98895.47
2022-11-30T09:14:14.511Z,98886.84
2022-11-30T09:15:15.948Z,98887.16
2022-11-30T09:16:19.342Z,98898.25
2022-11-30T09:17:20.819Z,98898.41
2022-11-30T09:18:22.626Z,98895.59
2022-11-30T09:19:25.002Z,98895.28
2022-11-30T09:20:26.604Z,98895.00
2022-11-30T09:21:28.085Z,98894.84
2022-11-30T09:22:29.947Z,98908.09
2022-11-30T09:23:31.735Z,98905.94
2022-11-30T09:24:33.294Z,98903.31
2022-11-30T09:25:34.724Z,98897.31
2022-11-30T09:26:36.174Z,98903.00
2022-11-30T09:27:37.955Z,98905.94
2022-11-30T09:28:39.959Z,98901.19
2022-11-30T09:29:41.436Z,98897.31
2022-11-30T09:30:42.918Z,98902.69
2022-11-30T09:31:44.416Z,98898.69
2022-11-30T09:32:46.162Z,98902.06
2022-11-30T09:33:48.118Z,98899.91
2022-11-30T09:34:50.880Z,98899.31
2022-11-30T09:35:59.554Z,98902.53
2022-11-30T09:37:01.033Z,98906.22
2022-11-30T09:38:02.860Z,98901.44
2022-11-30T09:39:04.281Z,98899.63
2022-11-30T09:40:06.609Z,98895.16
2022-11-30T09:41:34.474Z,98888.38
2022-11-30T09:42:48.097Z,98891.00
2022-11-30T09:43:55.260Z,98888.69
2022-11-30T09:45:23.146Z,98887.63
2022-11-30T09:46:33.697Z,98882.69
2022-11-30T09:47:44.621Z,98895.47
2022-11-30T09:48:54.449Z,98880.50
2022-11-30T09:49:56.363Z,98887.75
2022-11-30T09:51:04.922Z,98886.69
2022-11-30T09:52:13.757Z,98890.97
2022-11-30T09:53:29.638Z,98888.22
2022-11-30T09:54:37.897Z,98885.31
2022-11-30T09:55:42.645Z,98891.31
2022-11-30T09:56:45.496Z,98889.00
2022-11-30T09:57:52.743Z,98888.69
2022-11-30T09:59:00.356Z,98891.88
2022-11-30T10:00:05.947Z,98885.75
2022-11-30T10:01:17.071Z,98893.31
2022-11-30T10:02:18.753Z,98887.94
2022-11-30T10:03:23.204Z,98895.28
2022-11-30T10:04:29.900Z,98889.44
2022-11-30T10:05:41.665Z,98893.59
2022-11-30T10:07:02.280Z,98889.59
2022-11-30T10:08:20.624Z,98892.03
2022-11-30T10:09:22.070Z,98892.19
2022-11-30T10:10:41.549Z,98891.72
2022-11-30T10:12:01.747Z,98895.88
2022-11-30T10:13:12.783Z,98889.88
2022-11-30T10:14:24.627Z,98884.97
2022-11-30T10:15:28.796Z,98887.88
2022-11-30T10:16:44.449Z,98887.72
2022-11-30T10:18:02.554Z,98882.47
2022-11-30T10:19:19.263Z,98885.91
2022-11-30T10:20:52.606Z,98878.81
2022-11-30T10:22:08.713Z,98884.66
2022-11-30T10:23:19.381Z,98888.97
2022-11-30T10:24:26.956Z,98883.41
2022-11-30T10:25:44.681Z,98882.66
2022-11-30T10:26:54.402Z,98885.25
2022-11-30T10:28:47.045Z,98886.66
2022-11-30T10:29:49.339Z,98887.88
2022-11-30T10:30:50.782Z,98889.91
2022-11-30T10:31:57.820Z,98883.75
2022-11-30T10:33:10.399Z,98892.81
2022-11-30T10:34:31.096Z,98884.22
2022-11-30T10:35:41.951Z,98880.69
2022-11-30T10:37:00.858Z,98887.75
2022-11-30T10:38:11.866Z,98881.59
2022-11-30T10:39:19.617Z,98879.97
2022-11-30T10:40:36.160Z,98884.94
2022-11-30T10:41:47.748Z,98883.81
2022-11-30T10:43:26.541Z,98884.28
2022-11-30T10:44:32.080Z,98893.53
2022-11-30T10:45:36.190Z,98884.63
2022-11-30T10:46:43.878Z,98883.66
2022-11-30T10:48:07.035Z,98882.75
2022-11-30T10:49:15.935Z,98883.53
2022-11-30T10:50:18.041Z,98880.91
2022-11-30T10:51:20.458Z,98881.22
2022-11-30T10:52:35.071Z,98888.63
2022-11-30T10:53:37.082Z,98884.31
2022-11-30T10:54:38.529Z,98884.31
2022-11-30T10:56:07.147Z,98888.75
2022-11-30T10:57:09.266Z,98880.47
2022-11-30T10:58:32.133Z,98881.06
2022-11-30T10:59:47.266Z,98882.00
2022-11-30T11:01:02.735Z,98880.91
2022-11-30T11:02:32.814Z,98880.13
2022-11-30T11:03:34.971Z,98871.59
2022-11-30T11:04:36.412Z,98870.69
2022-11-30T11:05:37.899Z,98874.25
2022-11-30T11:07:08.377Z,98873.50
2022-11-30T11:08:25.775Z,98866.28
2022-11-30T11:09:30.224Z,98875.50
2022-11-30T11:10:51.551Z,98867.03
2022-11-30T11:11:55.663Z,98878.31
2022-11-30T11:12:58.133Z,98868.59
2022-11-30T11:14:23.144Z,98871.69
2022-11-30T11:15:24.767Z,98862.59
2022-11-30T11:16:26.588Z,98873.06
2022-11-30T11:17:29.026Z,98869.09
2022-11-30T11:18:32.699Z,98878.78
2022-11-30T11:19:38.021Z,98874.31
2022-11-30T11:20:42.609Z,98871.56
2022-11-30T11:21:49.345Z,98869.41
2022-11-30T11:22:51.167Z,98877.91
2022-11-30T11:23:57.750Z,98878.03
2022-11-30T11:25:19.303Z,98877.91
2022-11-30T11:26:26.470Z,98876.06
2022-11-30T11:27:31.558Z,98876.97
2022-11-30T11:28:41.387Z,98877.75
2022-11-30T11:29:42.982Z,98875.00
2022-11-30T11:30:44.653Z,98874.66
2022-11-30T11:31:47.315Z,98877.59
2022-11-30T11:33:02.264Z,98874.78
2022-11-30T11:34:05.905Z,98874.50
2022-11-30T11:35:34.013Z,98868.50
2022-11-30T11:36:36.938Z,98873.25
2022-11-30T11:37:41.545Z,98871.22
2022-11-30T11:38:45.644Z,98876.31
2022-11-30T11:40:17.628Z,98875.53
2022-11-30T11:41:27.808Z,98879.69
2022-11-30T11:42:33.549Z,98880.16
2022-11-30T11:43:56.490Z,98874.78
2022-11-30T11:44:59.690Z,98874.19
2022-11-30T11:46:13.148Z,98879.88
2022-11-30T11:47:32.898Z,98868.34
2022-11-30T11:48:38.609Z,98873.28
2022-11-30T11:49:40.492Z,98867.59
2022-11-30T11:51:06.733Z,98875.75
2022-11-30T11:52:08.731Z,98875.75
2022-11-30T11:53:10.202Z,98873.91
2022-11-30T11:54:18.907Z,98874.97
2022-11-30T11:55:21.223Z,98876.81
2022-11-30T11:56:32.001Z,98874.94
2022-11-30T11:57:45.026Z,98866.78
2022-11-30T11:59:01.171Z,98877.72
2022-11-30T12:00:15.624Z,98875.53
2022-11-30T12:01:41.533Z,98878.94
2022-11-30T12:02:53.833Z,98878.31
2022-11-30T12:04:38.912Z,98880.78
2022-11-30T12:05:44.328Z,98883.88
2022-11-30T12:06:48.680Z,98884.97
2022-11-30T12:08:07.629Z,98881.56
2022-11-30T12:09:18.541Z,98885.25
2022-11-30T12:11:52.800Z,98876.44
2022-11-30T12:12:55.319Z,98882.88
2022-11-30T12:13:57.267Z,98881.03
2022-11-30T12:14:59.127Z,98880.13
2022-11-30T12:16:24.025Z,98882.44
2022-11-30T12:18:03.006Z,98874.28
2022-11-30T12:19:41.980Z,98887.81
2022-11-30T12:21:00.595Z,98880.78
2022-11-30T12:22:17.590Z,98885.38
2022-11-30T12:23:27.903Z,98878.00
2022-11-30T12:24:47.429Z,98874.78
2022-11-30T12:25:59.833Z,98878.66
2022-11-30T12:27:16.518Z,98878.66
2022-11-30T12:28:23.947Z,98876.47
2022-11-30T12:29:39.399Z,98874.94
2022-11-30T12:31:11.739Z,98875.56
2022-11-30T12:32:40.176Z,98869.75
2022-11-30T12:34:22.986Z,98872.53
2022-11-30T12:35:51.256Z,98875.00
2022-11-30T12:37:11.170Z,98864.97
2022-11-30T12:38:37.121Z,98875.31
2022-11-30T12:39:45.648Z,98873.16
2022-11-30T12:41:04.224Z,98875.00
2022-11-30T12:42:19.348Z,98869.16
2022-11-30T12:43:42.100Z,98875.63
2022-11-30T12:45:07.699Z,98874.56
2022-11-30T12:46:24.434Z,98881.63
2022-11-30T12:47:54.544Z,98877.63
2022-11-30T12:49:30.793Z,98882.56